Grayville, IL

2:39 AM CDT on September 01, 2015 (GMT -0500)
North of Baker's Garage | | Change Station
CLOSE
Current Station
Personal Weather Station
Location: Albion, IL
Elevation: 490 ft
Nearby Weather Stations

Elev 490 ft 38.26 °N, 88.07 °W | Updated 17 seconds ago

Clear
Clear
71.9 °F
Feels Like 71.9 °F
N
1.0
Wind Variable Wind from SE
Gusts 1.0 mph

Today
High -- | Low -- °F
--% Chance of Precip.
Yesterday
High -- | Low -- °F
Precip. -- in
6:21 AM 7:22 PM
Waning Gibbous, 90% visible
Pressure 30.08 in
Visibility 4.0 miles
Clouds Clear
Dew Point 69 °F
Humidity 90%
Rainfall 0.00 in
Snow Depth Not available.
UV 0 out of 12
Pollen 9.70 out of 12
Air Quality Not available.
Flu Activity Not available.
METAR KCUL 010715Z AUTO 00000KT 4SM BR CLR 19/19 A3008 RMK AO2 T01890189
Pressure 30.08 in
Visibility 4.0 miles
Clouds Clear
Dew Point 69 °F
Humidity 90%
Rainfall 0.00 in
Snow Depth Not available.
UV 0 out of 12
Pollen 9.70 out of 12
Air Quality Not available.
Flu Activity Not available.
METAR KCUL 010715Z AUTO 00000KT 4SM BR CLR 19/19 A3008 RMK AO2 T01890189

10-Day Weather Forecast

×

Almanac

Astronomy

Sep. 01, 2015 Rise Set
Actual Time
Civil Twilight
Nautical Twilight
Astronomical Twilight
Moon
Length of Visible Light
Length of Day
Tomorrow will be .
, % of the Moon is Illuminated

Today's Extremes

State Highs State Lows

Community

WunderPhotos

Upload Photos

1,851,488 photos uploaded!

WunderBlogs® & News

Nearby

Air Quality

  Air Quality AQ Index Pollutant
Not available.

Snow Depth

Station Depth Elevation

Earthquake Activity

City Distance Mag. Time & Date
Minimum magnitude displayed is 2.5.

Coastal Water Temperatures

Place Temperature

Stations

Nearby Weather Stations

Station Location Temp. Windchill Dew Point Humidity Wind Precip. Elev Updated Type